Time;durP1;ratioP1;P1;durP2;ratioP2;P2;SDS_P1;SDS_P2;PMS_P1;PMS_P2;Temp;Humidity;BMP_temperature;BMP_pressure;BME280_temperature;BME280_humidity;BME280_pressure;Samples;Min_cycle;Max_cycle;Signal;HPM_P1;HPM_P2
2021/08/11 00:01:43;;;;;;;6.50;2.60;;;;;;;22.79;48.28;100300.05;1760101;79;21070;-59
2021/08/11 00:04:09;;;;;;;4.87;2.70;;;;;;;22.80;48.40;100298.22;1764984;79;21058;-60
2021/08/11 00:06:36;;;;;;;5.40;2.90;;;;;;;22.76;48.35;100291.59;1764529;79;21515;-60
2021/08/11 00:09:03;;;;;;;5.95;2.90;;;;;;;22.73;48.41;100293.34;1751686;80;21105;-60
2021/08/11 00:11:33;;;;;;;5.80;2.80;;;;;;;22.69;48.37;100294.27;1748665;80;21095;-60
2021/08/11 00:14:00;;;;;;;5.95;2.80;;;;;;;22.67;48.55;100293.66;1752123;81;21101;-60
2021/08/11 00:16:26;;;;;;;6.47;3.20;;;;;;;22.63;48.64;100298.61;1748086;81;21039;-60
2021/08/11 00:18:54;;;;;;;4.60;2.65;;;;;;;22.61;48.76;100296.66;1753707;81;21562;-60
2021/08/11 00:21:24;;;;;;;4.58;2.52;;;;;;;22.61;49.01;100293.12;1757324;80;21040;-60
2021/08/11 00:23:51;;;;;;;4.83;2.72;;;;;;;22.59;49.09;100299.21;1754656;81;21028;-60
2021/08/11 00:26:17;;;;;;;4.72;2.58;;;;;;;22.57;49.31;100293.23;1753619;81;21123;-60
2021/08/11 00:28:44;;;;;;;5.25;2.83;;;;;;;22.49;49.61;100296.92;1753278;81;21513;-60
2021/08/11 00:31:10;;;;;;;6.70;2.75;;;;;;;22.40;49.62;100290.92;1752857;81;21068;-58
2021/08/11 00:33:37;;;;;;;6.37;3.08;;;;;;;22.36;49.50;100292.38;1746365;81;21073;-57
2021/08/11 00:36:05;;;;;;;5.08;2.98;;;;;;;22.34;49.62;100292.25;1755518;79;21040;-59
2021/08/11 00:38:32;;;;;;;6.15;2.95;;;;;;;22.30;49.80;100285.13;1756974;81;21089;-60
2021/08/11 00:41:02;;;;;;;4.67;2.62;;;;;;;22.24;50.39;100284.06;1745402;79;21091;-59
2021/08/11 00:43:30;;;;;;;8.30;3.30;;;;;;;22.19;50.26;100280.32;1755438;81;21110;-59
2021/08/11 00:45:58;;;;;;;6.00;3.10;;;;;;;22.16;50.25;100282.91;1753354;81;21004;-58
2021/08/11 00:48:27;;;;;;;5.33;2.95;;;;;;;22.15;50.16;100281.77;1754224;80;21066;-58
2021/08/11 00:50:54;;;;;;;4.85;2.72;;;;;;;22.14;50.23;100277.42;1754977;80;21533;-59
2021/08/11 00:53:23;;;;;;;5.00;2.50;;;;;;;22.13;50.06;100273.11;1754473;80;21149;-59
2021/08/11 00:55:51;;;;;;;6.97;2.90;;;;;;;22.10;50.15;100274.32;1750321;81;21150;-58
2021/08/11 00:58:18;;;;;;;5.47;3.12;;;;;;;22.07;50.13;100279.59;1753637;81;21059;-59
2021/08/11 01:00:46;;;;;;;5.03;2.62;;;;;;;22.06;50.39;100286.48;1753574;80;21115;-59
2021/08/11 01:03:16;;;;;;;5.72;2.92;;;;;;;22.03;50.75;100286.36;1682811;83;21776;-58
2021/08/11 01:05:43;;;;;;;5.45;3.17;;;;;;;22.00;50.60;100282.73;1684306;83;21605;-59
2021/08/11 01:08:12;;;;;;;5.83;3.10;;;;;;;21.95;50.67;100277.67;1681647;82;21112;-59
2021/08/11 01:10:40;;;;;;;4.92;2.98;;;;;;;21.91;50.55;100273.23;1741323;81;21090;-58
2021/08/11 01:13:08;;;;;;;5.53;2.92;;;;;;;21.86;50.72;100271.67;1743123;81;21177;-58
2021/08/11 01:15:36;;;;;;;6.45;3.05;;;;;;;21.83;50.71;100270.72;1739272;81;21105;-59
2021/08/11 01:18:03;;;;;;;5.22;2.77;;;;;;;21.80;50.74;100270.59;1741009;81;21054;-59
2021/08/11 01:23:54;;;;;;;5.20;3.10;;;;;;;21.72;51.01;100268.11;1781353;78;22617;-58
2021/08/11 01:26:55;;;;;;;5.17;3.13;;;;;;;21.51;52.02;100264.48;1745995;80;21125;-58
2021/08/11 01:29:59;;;;;;;5.42;3.33;;;;;;;21.51;52.02;100264.48;1753167;80;21109;-60
2021/08/11 01:32:58;;;;;;;6.28;3.10;;;;;;;21.40;52.26;100272.21;1751407;80;20939;-59
2021/08/11 01:35:30;;;;;;;5.55;3.20;;;;;;;21.31;52.50;100266.19;1753273;80;20932;-59
2021/08/11 01:37:58;;;;;;;6.45;3.40;;;;;;;21.28;52.43;100267.91;1746749;80;21339;-59
2021/08/11 01:40:29;;;;;;;5.55;3.12;;;;;;;21.30;52.40;100267.20;1749185;80;20952;-59
2021/08/11 01:42:58;;;;;;;5.78;3.27;;;;;;;21.30;52.28;100265.38;1730263;81;21163;-59
2021/08/11 01:45:33;;;;;;;5.42;3.15;;;;;;;21.34;52.30;100261.79;1749705;80;21081;-58
2021/08/11 01:48:09;;;;;;;7.00;3.22;;;;;;;21.33;52.42;100263.65;1730312;80;21066;-58
2021/08/11 01:50:45;;;;;;;5.65;3.08;;;;;;;21.30;52.46;100265.38;1749833;81;21015;-58
2021/08/11 01:53:20;;;;;;;5.90;3.40;;;;;;;21.30;52.48;100268.54;1733083;80;21110;-59
2021/08/11 01:55:55;;;;;;;5.33;2.90;;;;;;;21.29;52.69;100270.92;1746712;80;22241;-59
2021/08/11 01:58:26;;;;;;;6.15;3.30;;;;;;;21.27;52.84;100271.63;1753007;80;21564;-59
2021/08/11 02:00:56;;;;;;;4.92;2.95;;;;;;;21.26;53.16;100273.98;1750303;80;21530;-59
2021/08/11 02:03:23;;;;;;;6.12;3.15;;;;;;;21.20;53.40;100272.08;1750911;80;21016;-58
2021/08/11 02:05:51;;;;;;;5.05;3.20;;;;;;;21.16;53.43;100281.01;1748081;80;21114;-58
2021/08/11 02:08:20;;;;;;;5.58;3.30;;;;;;;21.12;53.49;100279.76;1750409;80;21213;-58
2021/08/11 02:13:18;;;;;;;7.85;3.35;;;;;;;21.11;54.27;100278.09;1876466;74;21991;-59
2021/08/11 02:15:50;;;;;;;5.92;3.02;;;;;;;21.04;54.41;100290.59;1844646;76;21036;-58
2021/08/11 02:18:19;;;;;;;5.17;2.90;;;;;;;20.99;54.49;100291.17;1847827;76;21936;-58
2021/08/11 02:20:46;;;;;;;4.85;2.90;;;;;;;20.98;54.72;100285.52;1845322;75;20995;-59
2021/08/11 02:23:13;;;;;;;6.97;3.47;;;;;;;20.95;54.87;100292.59;1845783;75;21081;-59
2021/08/11 02:25:49;;;;;;;6.33;3.12;;;;;;;20.89;55.03;100296.03;1851072;75;21691;-58
2021/08/11 02:28:27;;;;;;;6.80;3.75;;;;;;;20.80;55.12;100295.34;1843362;75;21016;-59
2021/08/11 02:31:20;;;;;;;7.20;3.80;;;;;;;20.68;55.03;100297.70;1846316;75;21131;-59
2021/08/11 02:34:02;;;;;;;5.97;3.50;;;;;;;20.56;55.37;100298.69;1821222;77;21097;-58
2021/08/11 02:36:32;;;;;;;9.30;4.37;;;;;;;20.48;55.80;100298.80;1850022;76;21010;-59
2021/08/11 02:39:07;;;;;;;7.83;3.92;;;;;;;20.48;56.02;100300.66;1848459;75;21030;-58
2021/08/11 02:41:40;;;;;;;7.87;3.92;;;;;;;20.50;56.09;100300.77;1845072;75;21127;-59
2021/08/11 02:44:19;;;;;;;6.70;3.67;;;;;;;20.52;56.12;100298.73;1841150;75;23325;-59
2021/08/11 02:46:46;;;;;;;6.42;3.60;;;;;;;20.54;55.92;100300.73;1847615;76;21104;-58
2021/08/11 02:49:21;;;;;;;6.20;3.47;;;;;;;20.54;56.20;100297.20;1849959;75;21054;-58
2021/08/11 02:51:48;;;;;;;6.45;3.30;;;;;;;20.53;56.39;100299.06;1847822;75;20955;-60
2021/08/11 02:54:15;;;;;;;5.72;3.83;;;;;;;20.52;56.62;100301.41;1849203;75;21018;-59
2021/08/11 02:56:44;;;;;;;6.85;3.58;;;;;;;20.53;56.49;100302.25;1843186;76;21505;-59
2021/08/11 02:59:11;;;;;;;6.10;3.70;;;;;;;20.56;56.40;100302.70;1842457;76;21041;-59
2021/08/11 03:01:38;;;;;;;7.53;3.85;;;;;;;20.59;56.35;100303.66;1846666;75;21052;-58
2021/08/11 03:04:05;;;;;;;6.05;4.00;;;;;;;20.60;56.31;100303.95;1841749;75;21462;-58
2021/08/11 03:06:33;;;;;;;6.58;3.62;;;;;;;20.63;56.26;100306.80;1838212;75;21013;-58
2021/08/11 03:09:01;;;;;;;6.47;3.67;;;;;;;20.64;56.48;100307.63;1846219;75;21075;-55
2021/08/11 03:11:30;;;;;;;8.30;3.90;;;;;;;20.65;56.68;100305.28;1838656;75;20963;-56
2021/08/11 03:13:56;;;;;;;7.37;4.15;;;;;;;20.70;56.71;100305.02;1802614;78;21528;-56
2021/08/11 03:16:23;;;;;;;6.03;3.77;;;;;;;20.80;56.49;100311.38;1773579;79;21088;-54
2021/08/11 03:18:51;;;;;;;5.58;3.50;;;;;;;20.87;56.44;100311.45;1803840;77;21058;-57
2021/08/11 03:21:19;;;;;;;5.55;3.62;;;;;;;20.93;56.29;100318.67;1776362;79;21110;-57
2021/08/11 03:23:45;;;;;;;6.12;3.45;;;;;;;20.94;56.24;100318.48;1770806;78;21105;-57
2021/08/11 03:26:13;;;;;;;6.10;3.47;;;;;;;20.93;56.31;100327.55;1776751;78;21125;-56
2021/08/11 03:28:40;;;;;;;7.30;3.72;;;;;;;20.85;56.54;100325.01;1776464;78;21454;-56
2021/08/11 03:31:09;;;;;;;6.15;3.35;;;;;;;20.78;56.81;100323.61;1777814;78;21053;-57
2021/08/11 03:33:40;;;;;;;5.37;3.30;;;;;;;20.74;56.95;100325.51;1801175;78;21684;-57
2021/08/11 03:36:07;;;;;;;6.30;3.50;;;;;;;20.67;57.10;100328.11;1781519;78;21058;-55
2021/08/11 03:38:35;;;;;;;7.40;3.50;;;;;;;20.58;57.15;100320.70;1777716;78;21102;-56
2021/08/11 03:41:01;;;;;;;5.78;3.50;;;;;;;20.54;57.54;100322.59;1801261;77;21128;-56
2021/08/11 03:43:30;;;;;;;6.15;3.87;;;;;;;20.48;57.78;100318.85;1752966;80;21050;-57
2021/08/11 03:46:01;;;;;;;5.22;3.70;;;;;;;20.45;57.92;100315.22;1760366;79;21432;-57
2021/08/11 03:48:30;;;;;;;7.35;4.33;;;;;;;20.39;58.08;100310.62;1777122;78;21293;-57
2021/08/11 03:51:00;;;;;;;8.55;4.00;;;;;;;20.35;58.35;100310.17;1774429;78;21192;-57
2021/08/11 03:53:29;;;;;;;6.17;3.90;;;;;;;20.32;58.63;100313.73;1802347;77;21097;-55
2021/08/11 03:55:57;;;;;;;6.45;3.58;;;;;;;20.32;58.84;100311.87;1802749;78;21067;-56
2021/08/11 03:58:24;;;;;;;7.45;3.75;;;;;;;20.40;58.72;100305.60;1801989;78;21071;-57
2021/08/11 04:00:52;;;;;;;6.05;4.17;;;;;;;20.47;58.69;100305.67;1796296;77;21491;-56
2021/08/11 04:03:20;;;;;;;5.05;3.37;;;;;;;20.54;58.68;100311.91;1799517;78;21573;-58
2021/08/11 04:05:46;;;;;;;6.55;3.80;;;;;;;20.63;58.74;100317.50;1803525;77;21536;-60
2021/08/11 04:08:13;;;;;;;8.83;3.95;;;;;;;20.68;58.55;100311.07;1799438;77;21485;-59
2021/08/11 04:10:39;;;;;;;7.20;3.98;;;;;;;20.75;58.36;100311.13;1800694;78;21062;-60
2021/08/11 04:13:07;;;;;;;7.65;3.75;;;;;;;20.84;58.25;100305.14;1802526;78;21081;-60
2021/08/11 04:15:33;;;;;;;8.33;4.12;;;;;;;20.88;58.18;100312.59;1799945;78;21085;-60
2021/08/11 04:18:02;;;;;;;5.37;3.70;;;;;;;20.92;58.16;100308.50;1800817;78;21062;-60
2021/08/11 04:20:29;;;;;;;10.18;4.35;;;;;;;20.97;57.93;100310.61;1800230;78;21148;-60
2021/08/11 04:23:02;;;;;;;13.93;3.92;;;;;;;21.04;57.98;100318.16;1799736;77;23350;-61
2021/08/11 04:25:29;;;;;;;7.53;4.10;;;;;;;21.13;57.79;100318.84;1798838;78;20958;-59
2021/08/11 04:27:56;;;;;;;7.97;4.03;;;;;;;21.27;57.63;100317.94;1801435;78;21469;-60
2021/08/11 04:30:24;;;;;;;6.33;4.15;;;;;;;21.36;57.48;100308.43;1806007;78;21014;-59
2021/08/11 04:32:53;;;;;;;6.47;3.90;;;;;;;21.42;57.29;100313.02;1797496;78;21431;-59
2021/08/11 04:35:19;;;;;;;8.55;4.58;;;;;;;21.47;57.29;100317.30;1797487;77;21551;-59
2021/08/11 04:37:46;;;;;;;7.03;4.05;;;;;;;21.51;57.28;100315.87;1796203;78;21069;-59
2021/08/11 04:40:13;;;;;;;7.22;4.17;;;;;;;21.54;57.29;100316.00;1799959;77;21105;-59
2021/08/11 04:42:40;;;;;;;5.90;3.85;;;;;;;21.54;57.24;100311.98;1793641;78;21541;-60
2021/08/11 04:45:08;;;;;;;8.45;3.45;;;;;;;21.55;57.37;100318.45;1800945;77;21065;-58
2021/08/11 04:47:34;;;;;;;7.67;4.28;;;;;;;21.54;57.59;100316.81;1801439;77;21085;-59
2021/08/11 04:50:01;;;;;;;5.87;3.67;;;;;;;21.55;57.37;100316.30;1801634;77;21014;-61
2021/08/11 04:52:27;;;;;;;6.25;3.75;;;;;;;21.59;57.50;100313.56;1796899;77;21062;-62
2021/08/11 04:54:53;;;;;;;6.17;3.90;;;;;;;21.70;57.66;100319.19;1792780;78;21070;-61
2021/08/11 04:57:21;;;;;;;6.97;4.35;;;;;;;21.79;57.44;100317.69;1795780;78;21042;-62
2021/08/11 04:59:47;;;;;;;7.97;4.65;;;;;;;21.85;57.26;100315.53;1798184;78;21167;-63
2021/08/11 05:02:14;;;;;;;6.55;4.75;;;;;;;21.89;57.46;100316.28;1800571;78;21054;-56
2021/08/11 05:04:40;;;;;;;6.72;4.22;;;;;;;21.91;57.32;100312.08;1800266;77;21093;-63
2021/08/11 05:07:10;;;;;;;7.00;4.53;;;;;;;21.95;57.56;100311.98;1802848;77;22270;-65
2021/08/11 05:09:36;;;;;;;7.35;4.55;;;;;;;22.00;57.38;100308.19;1799373;77;21587;-64
2021/08/11 05:12:04;;;;;;;8.53;4.53;;;;;;;22.06;57.64;100306.58;1798472;77;21351;-61
2021/08/11 05:14:31;;;;;;;6.47;4.30;;;;;;;22.08;57.83;100300.50;1800779;78;20962;-63
2021/08/11 05:16:59;;;;;;;7.45;4.28;;;;;;;22.11;57.61;100297.42;1775326;78;20983;-63
2021/08/11 05:19:25;;;;;;;7.95;5.37;;;;;;;22.11;57.70;100293.89;1781474;78;21137;-63
2021/08/11 05:21:53;;;;;;;7.08;4.50;;;;;;;22.14;57.85;100290.33;1777623;78;20988;-63
2021/08/11 05:24:19;;;;;;;6.60;4.40;;;;;;;22.23;57.91;100287.77;1773257;78;22213;-62
2021/08/11 05:26:45;;;;;;;13.88;5.62;;;;;;;22.36;58.15;100290.19;1801410;77;22023;-63
2021/08/11 05:29:18;;;;;;;11.65;5.05;;;;;;;22.43;58.06;100293.73;1808296;78;21513;-62
2021/08/11 05:31:44;;;;;;;7.75;4.40;;;;;;;22.51;57.79;100288.67;1799544;77;21057;-62
2021/08/11 05:34:11;;;;;;;7.17;4.90;;;;;;;22.57;57.80;100295.91;1799217;77;21117;-62
2021/08/11 05:36:38;;;;;;;7.67;4.80;;;;;;;22.60;57.68;100288.28;1800408;77;21134;-62
2021/08/11 05:39:05;;;;;;;10.43;4.65;;;;;;;22.65;57.54;100285.00;1802320;77;21070;-62
2021/08/11 05:41:31;;;;;;;6.90;4.65;;;;;;;22.70;57.73;100285.20;1795588;77;21089;-62
2021/08/11 05:43:58;;;;;;;7.53;4.50;;;;;;;22.74;57.64;100279.73;1799180;77;21532;-62
2021/08/11 05:46:24;;;;;;;11.03;5.47;;;;;;;22.87;57.75;100276.77;1777089;78;21063;-70
2021/08/11 05:48:50;;;;;;;8.60;5.05;;;;;;;22.99;57.75;100281.28;1772489;78;22905;-61
2021/08/11 05:51:16;;;;;;;7.40;4.33;;;;;;;23.09;57.59;100275.53;1770956;78;21458;-61
2021/08/11 05:53:43;;;;;;;11.20;5.30;;;;;;;23.15;57.47;100273.37;1767300;78;21109;-62
2021/08/11 05:56:09;;;;;;;7.72;5.15;;;;;;;23.19;57.53;100265.72;1768788;78;21069;-60
2021/08/11 05:58:35;;;;;;;7.42;4.33;;;;;;;23.27;57.47;100262.00;1772850;78;21077;-61
2021/08/11 06:01:01;;;;;;;8.88;4.72;;;;;;;23.34;57.40;100266.84;1796329;77;21129;-55
2021/08/11 06:03:28;;;;;;;7.50;4.67;;;;;;;23.42;57.75;100260.40;1779093;78;21552;-62
2021/08/11 06:05:56;;;;;;;7.70;4.17;;;;;;;23.53;57.41;100247.67;1775501;78;21568;-64
2021/08/11 06:08:22;;;;;;;10.70;5.03;;;;;;;23.70;57.51;100245.34;1771995;78;21147;-62
2021/08/11 06:10:50;;;;;;;7.25;4.00;;;;;;;23.84;57.38;100249.66;1805500;77;21112;-62
2021/08/11 06:13:17;;;;;;;7.20;4.78;;;;;;;23.96;57.38;100242.28;1773042;79;21123;-61
2021/08/11 06:15:45;;;;;;;7.90;5.37;;;;;;;24.05;57.02;100244.48;1800571;77;21057;-61
2021/08/11 06:18:11;;;;;;;11.33;5.80;;;;;;;24.14;56.74;100246.91;1766993;79;21062;-62
2021/08/11 06:20:38;;;;;;;8.43;5.35;;;;;;;24.18;56.70;100243.59;1774094;78;21686;-59
2021/08/11 06:23:04;;;;;;;9.18;5.55;;;;;;;24.24;56.56;100244.58;1785384;78;21143;-61
2021/08/11 06:25:31;;;;;;;8.98;4.90;;;;;;;24.26;56.93;100246.02;1787267;78;21626;-61
2021/08/11 06:27:57;;;;;;;6.87;4.58;;;;;;;24.33;57.22;100247.33;1779193;78;21057;-61
2021/08/11 06:30:24;;;;;;;8.50;4.95;;;;;;;24.45;57.09;100251.48;1782168;78;21069;-60
2021/08/11 06:32:50;;;;;;;8.90;4.95;;;;;;;24.56;56.49;100253.52;1783427;78;21124;-69
2021/08/11 06:35:16;;;;;;;7.08;4.60;;;;;;;24.63;56.65;100254.28;1776372;79;21646;-62
2021/08/11 06:37:50;;;;;;;8.10;3.95;;;;;;;24.71;56.91;100250.48;1772640;78;21159;-63
2021/08/11 06:40:19;;;;;;;6.60;4.37;;;;;;;24.79;55.89;100248.05;1797394;77;21120;-60
2021/08/11 06:42:48;;;;;;;9.75;5.05;;;;;;;24.86;56.19;100250.16;1798872;77;21093;-62
2021/08/11 06:45:16;;;;;;;8.08;4.00;;;;;;;24.94;55.46;100251.22;1799671;77;21149;-61
2021/08/11 06:47:43;;;;;;;6.75;4.53;;;;;;;24.99;54.77;100249.22;1799323;77;21074;-60
2021/08/11 06:50:11;;;;;;;8.23;4.47;;;;;;;25.00;54.62;100249.00;1807739;77;21094;-62
2021/08/11 06:52:38;;;;;;;7.40;4.03;;;;;;;25.00;54.47;100251.69;1799632;77;21030;-61
2021/08/11 06:55:11;;;;;;;6.97;4.20;;;;;;;24.99;54.66;100251.91;1785817;78;21119;-62
2021/08/11 06:57:39;;;;;;;7.47;4.30;;;;;;;25.01;55.20;100256.02;1779620;78;21563;-61
2021/08/11 07:00:07;;;;;;;6.87;3.80;;;;;;;25.12;54.34;100250.44;1786526;78;21583;-60
2021/08/11 07:02:34;;;;;;;8.60;4.15;;;;;;;25.19;54.08;100248.50;1781645;78;21124;-62
2021/08/11 07:05:02;;;;;;;8.85;3.70;;;;;;;25.26;54.03;100244.92;1781869;78;21676;-62
2021/08/11 07:07:29;;;;;;;7.83;3.95;;;;;;;25.32;54.14;100242.73;1779602;78;21012;-60
2021/08/11 07:09:56;;;;;;;7.33;3.58;;;;;;;25.36;53.57;100243.91;1774074;78;21137;-62
2021/08/11 07:12:23;;;;;;;7.30;3.62;;;;;;;25.39;52.84;100248.33;1778380;78;21108;-61
2021/08/11 07:14:49;;;;;;;5.12;3.27;;;;;;;25.46;52.32;100250.13;1777582;79;21170;-61
2021/08/11 07:17:16;;;;;;;9.15;4.00;;;;;;;25.50;52.64;100245.42;1773442;79;21366;-62
2021/08/11 07:19:42;;;;;;;5.60;3.20;;;;;;;25.54;52.14;100243.91;1774637;79;21061;-63
2021/08/11 07:22:10;;;;;;;7.15;3.90;;;;;;;25.59;51.51;100240.55;1774302;79;21753;-62
2021/08/11 07:24:36;;;;;;;5.70;3.50;;;;;;;25.64;52.58;100249.28;1774261;79;21145;-60
2021/08/11 07:27:04;;;;;;;6.17;3.70;;;;;;;25.69;52.21;100243.53;1781409;78;21060;-59
2021/08/11 07:29:31;;;;;;;6.08;3.30;;;;;;;25.73;51.02;100248.75;1784778;78;21535;-59
2021/08/11 07:31:57;;;;;;;6.67;3.58;;;;;;;25.77;50.34;100249.97;1784495;78;20994;-62
2021/08/11 07:34:24;;;;;;;10.10;3.15;;;;;;;25.79;50.41;100237.61;1784853;78;21058;-61
2021/08/11 07:36:50;;;;;;;8.23;3.25;;;;;;;25.82;49.75;100245.22;1785518;78;21046;-62
2021/08/11 07:39:17;;;;;;;6.83;2.90;;;;;;;25.84;50.19;100243.64;1776623;78;21042;-62
2021/08/11 07:41:43;;;;;;;12.10;3.35;;;;;;;25.89;49.68;100243.78;1785292;78;21046;-62
2021/08/11 07:44:09;;;;;;;6.22;3.17;;;;;;;25.94;50.12;100247.47;1776306;78;21623;-61
2021/08/11 07:46:36;;;;;;;7.37;4.37;;;;;;;26.00;50.34;100248.45;1775040;78;21159;-62
2021/08/11 07:49:02;;;;;;;4.97;3.17;;;;;;;26.06;48.21;100248.08;1775179;78;21064;-60
2021/08/11 07:51:29;;;;;;;5.62;3.52;;;;;;;26.10;48.63;100247.37;1773062;78;21115;-60
2021/08/11 07:53:55;;;;;;;5.75;3.60;;;;;;;26.15;48.94;100252.08;1775052;78;21874;-61
2021/08/11 07:56:22;;;;;;;5.05;2.98;;;;;;;26.19;48.70;100242.47;1777369;78;21132;-59
2021/08/11 07:58:49;;;;;;;6.50;3.50;;;;;;;26.22;47.65;100237.16;1775603;78;21124;-60
2021/08/11 08:01:16;;;;;;;8.50;4.10;;;;;;;26.20;47.62;100235.22;1776915;78;21096;-63
2021/08/11 08:03:42;;;;;;;7.80;4.17;;;;;;;26.20;48.21;100237.39;1773291;78;21760;-63
2021/08/11 08:06:09;;;;;;;7.20;3.55;;;;;;;26.23;47.32;100230.73;1774843;78;21066;-59
2021/08/11 08:08:36;;;;;;;5.35;3.15;;;;;;;26.24;46.17;100225.61;1777905;78;22340;-60
2021/08/11 08:11:02;;;;;;;7.25;3.52;;;;;;;26.22;45.58;100229.88;1779647;78;21127;-61
2021/08/11 08:13:29;;;;;;;6.92;3.75;;;;;;;26.23;44.71;100240.16;1785517;77;21066;-64
2021/08/11 08:15:56;;;;;;;5.83;3.55;;;;;;;26.25;45.54;100238.05;1768059;78;21761;-62
2021/08/11 08:18:22;;;;;;;8.90;4.15;;;;;;;26.26;45.75;100245.07;1798060;78;21042;-62
2021/08/11 08:20:51;;;;;;;9.55;3.62;;;;;;;26.28;46.21;100238.41;1800550;77;21080;-61
2021/08/11 08:23:17;;;;;;;5.90;2.85;;;;;;;26.31;46.45;100233.09;1800525;77;21693;-60
2021/08/11 08:25:46;;;;;;;6.08;3.00;;;;;;;26.35;46.05;100232.10;1796773;77;21110;-60
2021/08/11 08:28:13;;;;;;;4.80;2.95;;;;;;;26.38;43.74;100227.06;1796900;78;21294;-59
2021/08/11 08:30:40;;;;;;;7.45;3.42;;;;;;;26.44;44.42;100228.81;1795657;77;21156;-60
2021/08/11 08:33:07;;;;;;;5.67;2.62;;;;;;;26.51;44.00;100231.41;1796273;78;21753;-62
2021/08/11 08:35:33;;;;;;;5.00;2.65;;;;;;;26.56;43.93;100227.48;1776782;78;21144;-62
2021/08/11 08:38:00;;;;;;;5.95;3.35;;;;;;;26.58;44.51;100217.81;1772159;80;21051;-62
2021/08/11 08:40:34;;;;;;;6.60;2.70;;;;;;;26.62;44.36;100223.87;1780079;79;21129;-61
2021/08/11 08:43:01;;;;;;;6.45;3.40;;;;;;;26.66;44.79;100222.39;1769065;79;21295;-61
2021/08/11 08:45:27;;;;;;;6.78;3.35;;;;;;;26.70;44.99;100221.40;1774113;78;21082;-58
2021/08/11 08:47:54;;;;;;;7.00;3.50;;;;;;;26.74;45.58;100210.41;1798755;77;21064;-59
2021/08/11 08:50:21;;;;;;;5.83;3.30;;;;;;;26.83;45.01;100213.08;1766318;78;21117;-60
2021/08/11 08:52:47;;;;;;;5.50;3.40;;;;;;;26.90;44.15;100206.20;1769053;78;22260;-60
2021/08/11 08:55:18;;;;;;;6.83;3.80;;;;;;;26.95;44.94;100207.67;1773014;78;21098;-60
2021/08/11 08:57:45;;;;;;;6.58;3.40;;;;;;;27.00;44.55;100209.64;1767902;78;21125;-61
2021/08/11 09:00:15;;;;;;;5.35;3.05;;;;;;;27.02;44.62;100203.50;1772186;78;22421;-61
2021/08/11 09:02:42;;;;;;;5.58;3.50;;;;;;;27.03;44.12;100211.38;1771944;78;21091;-61
2021/08/11 09:05:10;;;;;;;6.17;3.05;;;;;;;27.04;44.84;100210.30;1796767;77;21509;-60
2021/08/11 09:07:45;;;;;;;6.67;3.62;;;;;;;27.10;43.84;100212.59;1773397;79;21093;-61
2021/08/11 09:10:22;;;;;;;7.78;2.98;;;;;;;27.14;44.14;100205.65;1774466;79;21598;-60
2021/08/11 09:12:50;;;;;;;4.92;2.87;;;;;;;27.17;43.25;100195.73;1774008;78;21469;-57
2021/08/11 09:15:38;;;;;;;5.40;3.40;;;;;;;27.16;43.70;100196.77;1777630;79;21577;-59
2021/08/11 09:18:20;;;;;;;5.67;2.77;;;;;;;27.19;42.44;100199.55;1771007;78;21830;-59
2021/08/11 09:20:53;;;;;;;4.58;2.75;;;;;;;27.24;42.53;100195.60;1803311;77;21340;-60
2021/08/11 09:23:41;;;;;;;6.28;2.80;;;;;;;27.30;42.92;100194.66;1769722;78;21053;-60
2021/08/11 09:26:16;;;;;;;6.40;3.47;;;;;;;27.35;43.47;100193.95;1772353;78;21016;-61
2021/08/11 09:28:45;;;;;;;6.22;3.05;;;;;;;27.40;42.78;100193.55;1798775;77;21089;-60
2021/08/11 09:31:30;;;;;;;5.50;2.80;;;;;;;27.43;42.57;100197.64;1773081;78;22989;-57
2021/08/11 09:33:59;;;;;;;5.30;2.83;;;;;;;27.47;42.89;100192.06;1767259;78;21104;-60
2021/08/11 09:36:26;;;;;;;5.10;2.77;;;;;;;27.51;41.75;100189.16;1769822;78;22484;-60
2021/08/11 09:39:03;;;;;;;5.80;2.27;;;;;;;27.53;42.21;100186.22;1772216;78;21066;-61
2021/08/11 09:41:33;;;;;;;5.05;2.72;;;;;;;27.59;41.19;100186.63;1801178;78;21023;-60
2021/08/11 09:44:12;;;;;;;9.35;3.50;;;;;;;27.65;41.15;100184.83;1801328;77;21102;-64
2021/08/11 09:46:39;;;;;;;11.40;3.45;;;;;;;27.70;41.72;100186.27;1800969;77;21048;-61
2021/08/11 09:49:17;;;;;;;6.58;3.10;;;;;;;27.74;40.90;100188.77;1778888;78;21053;-60
2021/08/11 09:52:00;;;;;;;7.22;3.12;;;;;;;27.77;41.04;100180.18;1768954;79;21428;-61
2021/08/11 09:54:29;;;;;;;7.45;3.25;;;;;;;27.79;40.91;100176.73;1769465;78;21049;-61
2021/08/11 09:56:56;;;;;;;5.62;2.95;;;;;;;27.83;38.61;100176.52;1773079;78;21156;-60
2021/08/11 09:59:22;;;;;;;4.97;3.10;;;;;;;27.88;38.47;100177.97;1796833;77;21066;-60
2021/08/11 10:01:50;;;;;;;7.03;3.10;;;;;;;27.96;39.36;100171.39;1804100;77;22358;-62
2021/08/11 10:04:18;;;;;;;5.22;3.25;;;;;;;28.00;41.03;100172.53;1797240;77;22284;-57
2021/08/11 10:06:47;;;;;;;5.17;3.22;;;;;;;28.06;39.24;100173.42;1795083;77;21308;-63
2021/08/11 10:09:24;;;;;;;6.20;3.10;;;;;;;28.11;40.35;100171.66;1792067;77;21113;-63
2021/08/11 10:11:57;;;;;;;5.22;3.22;;;;;;;28.15;37.92;100168.73;1799548;77;21078;-62
2021/08/11 10:14:26;;;;;;;7.92;3.20;;;;;;;28.21;37.00;100158.84;1807262;77;21575;-62
2021/08/11 10:16:54;;;;;;;9.35;3.25;;;;;;;28.22;37.30;100168.57;1808826;78;21057;-61
2021/08/11 10:19:23;;;;;;;4.70;2.72;;;;;;;28.25;37.36;100169.98;1798954;77;21074;-61
2021/08/11 10:21:57;;;;;;;5.20;3.25;;;;;;;28.27;37.28;100163.78;1805537;78;21114;-62
2021/08/11 10:24:24;;;;;;;5.22;2.80;;;;;;;28.32;37.16;100160.62;1800885;77;21042;-61
2021/08/11 10:26:53;;;;;;;5.05;2.75;;;;;;;28.37;36.40;100161.78;1803590;77;21050;-62
2021/08/11 10:29:20;;;;;;;8.20;3.37;;;;;;;28.42;36.22;100160.52;1801688;77;21053;-61
2021/08/11 10:31:47;;;;;;;6.78;2.77;;;;;;;28.51;35.50;100155.80;1775904;78;21038;-61
2021/08/11 10:34:16;;;;;;;4.75;2.85;;;;;;;28.59;35.79;100157.28;1803047;77;21567;-63
2021/08/11 10:36:44;;;;;;;5.28;3.05;;;;;;;28.66;34.73;100151.69;1804097;77;20991;-67
2021/08/11 10:39:11;;;;;;;5.33;2.75;;;;;;;28.72;34.45;100155.58;1805517;77;21029;-64
2021/08/11 10:41:37;;;;;;;3.58;2.02;;;;;;;28.76;34.87;100153.19;1808517;77;21053;-61
2021/08/11 10:44:05;;;;;;;6.05;3.00;;;;;;;28.80;35.13;100150.28;1778167;78;21057;-65
2021/08/11 10:46:40;;;;;;;5.50;3.10;;;;;;;28.84;34.08;100151.95;1772224;78;21064;-65
2021/08/11 10:49:08;;;;;;;4.60;2.70;;;;;;;28.86;34.74;100149.27;1768870;79;21118;-65
2021/08/11 10:51:45;;;;;;;5.45;3.22;;;;;;;28.88;35.06;100147.66;1772241;79;21085;-63
2021/08/11 10:54:11;;;;;;;5.12;2.95;;;;;;;28.89;33.01;100146.61;1774191;79;21455;-68
2021/08/11 10:56:47;;;;;;;5.80;2.92;;;;;;;28.89;32.45;100134.42;1774884;78;21006;-66
2021/08/11 10:59:27;;;;;;;;;;;;;;;28.91;31.98;100147.17;1773583;79;23384;-64
2021/08/11 11:01:55;;;;;;;9.65;3.05;;;;;;;28.90;31.94;100151.77;1775130;78;20632;-64
2021/08/11 11:04:42;;;;;;;5.42;2.55;;;;;;;28.88;32.66;100141.73;1804568;78;21037;-65
2021/08/11 11:07:16;;;;;;;4.67;2.42;;;;;;;28.98;32.71;100137.51;1767912;78;21113;-64
2021/08/11 11:09:44;;;;;;;4.50;2.27;;;;;;;29.03;31.63;100142.47;1805923;77;21675;-66
2021/08/11 11:12:22;;;;;;;6.15;2.70;;;;;;;29.09;30.89;100136.03;1801755;77;22661;-68
2021/08/11 11:14:58;;;;;;;6.50;2.62;;;;;;;29.15;30.68;100134.73;1779913;78;21691;-67
2021/08/11 11:17:29;;;;;;;5.58;2.77;;;;;;;29.21;29.97;100133.77;1768944;78;21040;-64
2021/08/11 11:20:10;;;;;;;7.12;2.85;;;;;;;29.29;29.58;100130.62;1773221;79;21057;-63
2021/08/11 11:22:44;;;;;;;4.40;2.33;;;;;;;29.32;29.78;100130.12;1773314;79;21054;-60
2021/08/11 11:25:13;;;;;;;7.28;2.50;;;;;;;29.34;30.41;100133.39;1772980;78;21127;-66
2021/08/11 11:27:50;;;;;;;5.25;2.75;;;;;;;29.40;30.29;100136.96;1774909;78;21674;-63
2021/08/11 11:30:31;;;;;;;5.15;2.60;;;;;;;29.46;30.73;100129.98;1783068;79;21395;-63
2021/08/11 11:33:23;;;;;;;6.75;2.83;;;;;;;29.50;29.65;100134.91;1803888;77;21785;-65
2021/08/11 11:36:20;;;;;;;4.30;2.40;;;;;;;29.52;29.49;100130.88;1803837;78;21097;-63
2021/08/11 11:39:06;;;;;;;9.25;2.40;;;;;;;29.56;29.69;100125.77;1779369;78;23339;-63
2021/08/11 11:41:34;;;;;;;5.30;2.40;;;;;;;29.63;29.76;100129.89;1777982;79;21011;-63